Time;durP1;ratioP1;P1;durP2;ratioP2;P2;SDS_P1;SDS_P2;PMS_P1;PMS_P2;Temp;Humidity;BMP_temperature;BMP_pressure;BME280_temperature;BME280_humidity;BME280_pressure;Samples;Min_cycle;Max_cycle;Signal;HPM_P1;HPM_P2
2022/09/27 00:00:29;;;;;;;11.83;1.10;;;;;;;19.66;49.19;99798.38;5095480;28;20115;-74
2022/09/27 00:02:55;;;;;;;7.77;1.20;;;;;;;20.27;48.59;99793.50;5074129;28;20024;-74
2022/09/27 00:05:20;;;;;;;5.37;0.70;;;;;;;19.74;47.60;99800.50;5092424;28;20035;-74
2022/09/27 00:07:45;;;;;;;5.90;0.60;;;;;;;20.41;48.77;99805.84;5097862;28;20424;-74
2022/09/27 00:10:12;;;;;;;7.93;0.90;;;;;;;20.28;48.03;99804.97;5110225;28;20031;-74
2022/09/27 00:12:38;;;;;;;7.83;1.73;;;;;;;20.57;47.12;99810.13;5110825;28;20023;-74
2022/09/27 00:15:05;;;;;;;2.30;0.60;;;;;;;20.21;47.66;99808.97;5098448;28;20466;-74
2022/09/27 00:17:31;;;;;;;5.23;0.77;;;;;;;20.12;48.01;99811.28;5088330;28;20101;-74
2022/09/27 00:19:58;;;;;;;6.80;1.33;;;;;;;18.94;50.08;99822.25;5089734;28;20059;-74
2022/09/27 00:22:25;;;;;;;4.43;0.70;;;;;;;19.94;48.92;99815.16;5090192;28;20027;-74
2022/09/27 00:24:50;;;;;;;10.27;1.83;;;;;;;20.36;47.73;99815.94;5088636;28;20031;-74
2022/09/27 00:27:17;;;;;;;11.20;1.83;;;;;;;20.13;47.89;99814.81;5089714;28;20027;-74
2022/09/27 00:29:43;;;;;;;7.97;1.67;;;;;;;20.45;47.01;99811.78;5089313;28;20035;-74
2022/09/27 00:32:09;;;;;;;6.90;1.60;;;;;;;20.32;47.19;99801.16;5092979;28;20028;-74
2022/09/27 00:34:34;;;;;;;4.60;1.13;;;;;;;20.54;46.03;99805.00;5093617;28;20552;-74
2022/09/27 00:36:59;;;;;;;4.93;1.00;;;;;;;20.40;47.10;99809.47;5093493;28;20110;-74
2022/09/27 00:39:25;;;;;;;5.13;0.93;;;;;;;20.29;47.11;99811.97;5091751;28;20112;-74
2022/09/27 00:41:50;;;;;;;2.00;0.50;;;;;;;20.40;46.66;99817.44;5094162;28;20085;-74
2022/09/27 00:44:25;;;;;;;2.60;0.53;;;;;;;20.31;47.29;99826.84;5095445;28;20024;-74
2022/09/27 00:47:16;;;;;;;4.47;0.90;;;;;;;18.76;51.17;99840.91;5090943;28;20051;-74
2022/09/27 00:49:47;;;;;;;7.37;0.80;;;;;;;19.08;50.02;99840.81;5075094;28;20586;-73
2022/09/27 00:52:19;;;;;;;9.23;1.20;;;;;;;18.87;50.39;99836.78;5092049;28;20020;-73
2022/09/27 00:54:49;;;;;;;16.57;2.07;;;;;;;19.23;48.14;99828.41;5093519;28;20016;-73
2022/09/27 00:57:15;;;;;;;17.87;1.80;;;;;;;19.65;47.50;99833.75;5092616;28;21073;-74
2022/09/27 00:59:46;;;;;;;9.27;1.30;;;;;;;20.25;46.55;99829.03;5091800;28;20027;-74
2022/09/27 01:02:12;;;;;;;11.73;1.73;;;;;;;19.56;48.63;99834.34;5093859;28;20027;-75
2022/09/27 01:04:39;;;;;;;5.87;0.90;;;;;;;20.18;47.55;99831.25;5095042;28;20479;-74
2022/09/27 01:07:05;;;;;;;11.57;1.67;;;;;;;19.70;48.41;99826.38;5092113;28;20506;-73
2022/09/27 01:09:31;;;;;;;9.40;1.27;;;;;;;19.83;48.22;99829.09;5092877;28;20027;-74
2022/09/27 01:12:12;;;;;;;7.60;1.37;;;;;;;19.80;48.53;99843.41;5093460;28;20102;-75
2022/09/27 01:14:54;;;;;;;13.07;2.00;;;;;;;19.64;47.67;99837.34;5100339;27;20116;-74
2022/09/27 01:17:26;;;;;;;15.03;2.17;;;;;;;19.15;47.70;99842.13;5073365;28;20107;-74
2022/09/27 01:20:07;;;;;;;13.67;1.67;;;;;;;19.72;49.09;99840.38;5101650;28;20290;-74
2022/09/27 01:22:58;;;;;;;9.13;1.70;;;;;;;19.99;48.29;99839.59;5093723;28;20270;-75
2022/09/27 01:25:33;;;;;;;7.90;1.70;;;;;;;19.55;49.17;99844.09;5092795;28;20034;-74
2022/09/27 01:28:04;;;;;;;9.53;1.50;;;;;;;19.28;49.99;99830.78;5090849;28;20603;-74
2022/09/27 01:30:47;;;;;;;8.30;1.70;;;;;;;19.85;48.61;99839.63;5093295;28;20028;-74
2022/09/27 01:33:42;;;;;;;6.38;1.33;;;;;;;20.03;48.48;99832.25;5092131;28;20057;-74
2022/09/27 01:36:10;;;;;;;7.20;1.50;;;;;;;19.88;48.85;99831.44;5092015;28;20036;-75
2022/09/27 01:38:58;;;;;;;10.87;1.27;;;;;;;19.96;48.19;99831.81;5092115;28;20031;-74
2022/09/27 01:41:50;;;;;;;13.87;2.37;;;;;;;20.22;47.92;99837.22;5091907;28;20035;-74
2022/09/27 01:44:32;;;;;;;11.07;1.50;;;;;;;20.64;46.50;99832.63;5091893;28;20042;-74
2022/09/27 01:47:03;;;;;;;6.93;1.25;;;;;;;19.70;48.56;99836.97;5092874;28;20052;-74
2022/09/27 01:49:58;;;;;;;11.13;1.20;;;;;;;20.02;47.70;99841.16;5089916;28;20465;-74
2022/09/27 01:52:31;;;;;;;8.63;2.03;;;;;;;19.44;48.42;99844.78;5092841;28;20051;-74
2022/09/27 01:55:01;;;;;;;12.50;1.20;;;;;;;19.84;47.83;99838.78;5089590;28;20093;-74
2022/09/27 01:57:33;;;;;;;13.67;1.20;;;;;;;19.66;47.59;99840.78;5092608;28;20464;-74
2022/09/27 02:00:04;;;;;;;15.85;2.17;;;;;;;19.82;47.45;99832.69;5088153;28;20051;-74
2022/09/27 02:02:35;;;;;;;11.27;1.83;;;;;;;19.98;46.79;99825.44;5089984;28;20032;-74
2022/09/27 02:05:06;;;;;;;15.37;1.77;;;;;;;20.18;47.22;99823.28;5091694;28;20376;-74
2022/09/27 02:07:39;;;;;;;7.17;1.00;;;;;;;18.94;49.07;99832.84;5090726;28;20036;-74
2022/09/27 02:10:18;;;;;;;10.50;1.60;;;;;;;19.52;47.95;99828.38;5088300;28;20397;-74
2022/09/27 02:12:50;;;;;;;7.60;1.07;;;;;;;19.67;48.62;99805.34;5090581;28;20027;-74
2022/09/27 02:15:17;;;;;;;10.57;0.93;;;;;;;19.65;48.61;99807.25;5091857;28;20024;-74
2022/09/27 02:17:55;;;;;;;10.97;1.07;;;;;;;19.91;48.21;99808.25;5091488;28;20027;-74
2022/09/27 02:20:38;;;;;;;9.13;1.60;;;;;;;20.13;47.42;99807.69;5091795;28;20028;-74
2022/09/27 02:23:25;;;;;;;11.52;1.15;;;;;;;20.05;47.57;99810.00;5091237;28;20032;-75
2022/09/27 02:25:56;;;;;;;9.23;1.77;;;;;;;20.17;47.31;99814.50;5093419;28;20024;-74
2022/09/27 02:28:37;;;;;;;6.73;1.27;;;;;;;20.20;47.15;99818.75;5092140;28;20058;-74
2022/09/27 02:31:03;;;;;;;8.63;0.97;;;;;;;20.25;47.59;99829.03;5090961;28;20043;-74
2022/09/27 02:33:34;;;;;;;11.37;1.30;;;;;;;18.69;50.16;99855.47;5090344;28;20032;-74
2022/09/27 02:36:00;;;;;;;8.70;1.10;;;;;;;15.55;56.29;99870.91;5089995;28;20054;-71
2022/09/27 02:38:25;;;;;;;2.97;0.90;;;;;;;15.77;54.76;99869.00;5090283;28;20479;-72
2022/09/27 02:40:51;;;;;;;7.70;0.70;;;;;;;16.33;55.25;99855.81;5091444;28;20032;-71
2022/09/27 02:43:19;;;;;;;6.67;1.90;;;;;;;16.78;53.70;99854.41;5089977;28;20024;-72
2022/09/27 02:46:16;;;;;;;7.97;0.83;;;;;;;17.44;50.89;99850.13;5090456;28;20038;-73
2022/09/27 02:48:56;;;;;;;6.63;0.77;;;;;;;18.18;50.18;99844.34;5090987;28;20044;-74
2022/09/27 02:51:30;;;;;;;4.97;0.70;;;;;;;18.20;48.55;99843.31;5095907;28;20123;-74
2022/09/27 02:54:11;;;;;;;5.30;1.50;;;;;;;18.45;49.03;99837.47;5077985;28;20059;-74
2022/09/27 02:56:56;;;;;;;3.80;0.60;;;;;;;18.63;49.10;99839.97;5090169;28;20556;-74
2022/09/27 02:59:43;;;;;;;19.17;1.27;;;;;;;18.94;48.54;99848.72;5089230;28;20060;-74
2022/09/27 03:02:34;;;;;;;2.57;0.60;;;;;;;19.22;48.17;99847.91;5107233;27;20035;-74
2022/09/27 03:05:09;;;;;;;6.73;0.77;;;;;;;19.41;48.89;99842.31;5062614;28;20045;-74
2022/09/27 03:07:37;;;;;;;6.03;0.50;;;;;;;19.24;48.62;99845.16;5089490;28;20028;-74
2022/09/27 03:10:03;;;;;;;8.23;1.47;;;;;;;18.82;47.77;99850.28;5094822;28;20034;-74
2022/09/27 03:12:28;;;;;;;8.60;1.00;;;;;;;18.61;48.09;99841.84;5089390;28;20046;-75
2022/09/27 03:14:56;;;;;;;6.20;1.17;;;;;;;17.73;50.42;99850.31;5090671;28;20027;-74
2022/09/27 03:17:21;;;;;;;10.70;0.90;;;;;;;17.67;51.39;99845.38;5090071;28;20023;-74
2022/09/27 03:19:47;;;;;;;5.47;1.20;;;;;;;18.81;49.11;99838.00;5089118;28;20032;-74
2022/09/27 03:22:13;;;;;;;7.73;1.00;;;;;;;19.30;47.66;99826.22;5090035;28;20036;-74
2022/09/27 03:24:38;;;;;;;5.70;0.57;;;;;;;19.32;47.97;99819.03;5090860;28;20027;-74
2022/09/27 03:27:04;;;;;;;6.10;0.90;;;;;;;19.46;47.60;99819.00;5088087;28;20081;-74
2022/09/27 03:29:29;;;;;;;4.37;1.00;;;;;;;19.66;46.66;99808.97;5090773;28;20024;-74
2022/09/27 03:31:54;;;;;;;12.07;1.10;;;;;;;18.47;48.16;99822.34;5090219;28;20032;-74
2022/09/27 03:34:21;;;;;;;11.53;1.73;;;;;;;17.65;49.99;99826.09;5089866;28;20032;-74
2022/09/27 03:36:46;;;;;;;4.63;0.70;;;;;;;18.71;48.51;99829.78;5089351;28;20119;-75
2022/09/27 03:39:11;;;;;;;5.93;0.60;;;;;;;19.33;48.23;99823.41;5084841;28;20547;-74
2022/09/27 03:41:37;;;;;;;6.03;0.93;;;;;;;18.52;48.48;99834.44;5099377;27;20457;-74
2022/09/27 03:44:02;;;;;;;7.33;0.87;;;;;;;17.75;50.05;99839.66;5090141;28;20036;-74
2022/09/27 03:46:28;;;;;;;10.77;1.20;;;;;;;17.77;52.40;99838.63;5088590;28;20031;-74
2022/09/27 03:48:53;;;;;;;6.80;1.00;;;;;;;18.30;50.35;99841.00;5090873;28;20442;-73
2022/09/27 03:51:19;;;;;;;8.07;1.60;;;;;;;18.95;49.61;99858.38;5092020;28;20525;-73
2022/09/27 03:53:44;;;;;;;8.07;0.80;;;;;;;17.48;51.63;99874.59;5089392;28;20024;-72
2022/09/27 03:56:10;;;;;;;9.20;1.33;;;;;;;17.42;54.78;99867.84;5089965;28;20047;-71
2022/09/27 03:58:35;;;;;;;6.87;1.10;;;;;;;16.29;59.32;99891.16;5090591;28;20553;-72
2022/09/27 04:01:00;;;;;;;12.23;1.30;;;;;;;16.54;61.59;99863.56;5090441;28;20028;-71
2022/09/27 04:03:26;;;;;;;5.33;1.00;;;;;;;16.00;58.58;99853.88;5089948;28;20032;-72
2022/09/27 04:05:52;;;;;;;4.90;1.20;;;;;;;15.73;58.61;99841.09;5092854;28;20039;-72
2022/09/27 04:08:18;;;;;;;6.33;0.97;;;;;;;17.04;55.87;99839.06;5094078;28;20080;-72
2022/09/27 04:10:44;;;;;;;5.20;0.87;;;;;;;15.88;60.37;99851.84;5095209;28;20489;-73
2022/09/27 04:13:09;;;;;;;5.07;1.10;;;;;;;17.35;54.96;99834.78;5094739;28;20570;-72
2022/09/27 04:15:35;;;;;;;8.53;2.43;;;;;;;18.43;51.30;99844.63;5094517;28;20429;-73
2022/09/27 04:18:00;;;;;;;6.70;0.63;;;;;;;18.76;52.92;99850.66;5093603;28;20016;-72
2022/09/27 04:20:25;;;;;;;10.80;0.80;;;;;;;17.04;54.14;99870.72;5093751;28;20028;-72
2022/09/27 04:22:51;;;;;;;5.87;0.97;;;;;;;17.53;54.36;99869.03;5094923;28;20028;-71
2022/09/27 04:25:16;;;;;;;12.73;2.37;;;;;;;16.66;55.46;99847.13;5093328;28;20020;-70
2022/09/27 04:27:45;;;;;;;5.03;0.70;;;;;;;17.91;52.53;99829.09;5093220;28;20391;-71
2022/09/27 04:30:12;;;;;;;3.83;0.77;;;;;;;16.99;53.73;99841.06;5092855;28;20032;-72
2022/09/27 04:32:41;;;;;;;5.10;1.13;;;;;;;17.86;52.47;99837.28;5093401;28;20048;-72
2022/09/27 04:37:52;;;;;;;8.37;1.17;;;;;;;19.25;49.85;99830.97;5094826;28;20043;-73
2022/09/27 04:40:19;;;;;;;4.40;1.13;;;;;;;18.67;50.59;99827.38;5094648;28;20028;-73
2022/09/27 04:42:44;;;;;;;12.67;2.07;;;;;;;18.30;49.96;99838.38;5093397;28;20027;-73
2022/09/27 04:45:12;;;;;;;3.80;0.70;;;;;;;18.74;49.82;99831.38;5094170;28;20023;-74
2022/09/27 04:47:44;;;;;;;4.40;0.60;;;;;;;17.51;51.79;99840.06;5094632;28;20052;-74
2022/09/27 04:50:10;;;;;;;6.25;1.05;;;;;;;17.73;52.27;99845.03;5092707;28;20031;-74
2022/09/27 04:52:36;;;;;;;7.40;1.20;;;;;;;17.99;50.81;99849.84;5093192;28;20020;-73
2022/09/27 04:55:01;;;;;;;8.03;1.00;;;;;;;18.42;51.50;99848.22;5094791;28;20024;-73
2022/09/27 04:57:27;;;;;;;10.30;0.90;;;;;;;18.21;51.62;99844.19;5091766;28;20020;-74
2022/09/27 04:59:52;;;;;;;8.27;1.97;;;;;;;17.95;52.20;99831.47;5093003;28;20493;-74
2022/09/27 05:02:17;;;;;;;10.13;2.30;;;;;;;17.38;54.55;99834.63;5092852;28;20487;-74
2022/09/27 05:04:43;;;;;;;4.07;0.70;;;;;;;17.62;54.60;99842.13;5093258;28;20086;-73
2022/09/27 05:07:08;;;;;;;5.27;0.80;;;;;;;16.52;56.17;99844.34;5092830;28;20042;-73
2022/09/27 05:09:34;;;;;;;7.33;1.30;;;;;;;18.04;53.99;99840.69;5092570;28;20061;-73
2022/09/27 05:11:59;;;;;;;5.10;0.60;;;;;;;17.69;51.94;99845.28;5092085;28;20028;-73
2022/09/27 05:14:25;;;;;;;8.50;1.07;;;;;;;17.04;58.27;99846.13;5093065;28;20019;-72
2022/09/27 05:16:52;;;;;;;14.30;1.50;;;;;;;15.65;63.52;99864.28;5092649;28;20480;-71
2022/09/27 05:19:17;;;;;;;9.87;1.90;;;;;;;14.94;69.68;99870.09;5092821;28;20020;-69
2022/09/27 05:21:43;;;;;;;8.90;0.77;;;;;;;15.96;63.02;99854.13;5093663;28;20059;-71
2022/09/27 05:24:08;;;;;;;7.57;1.00;;;;;;;16.78;59.96;99846.50;5092222;28;20030;-72
2022/09/27 05:26:33;;;;;;;7.47;0.90;;;;;;;17.21;57.75;99847.88;5092389;28;20027;-72
2022/09/27 05:28:59;;;;;;;7.30;0.80;;;;;;;17.04;58.20;99849.59;5092067;28;20027;-73
2022/09/27 05:31:25;;;;;;;8.17;1.07;;;;;;;17.39;55.24;99868.03;5091678;28;20024;-75
2022/09/27 05:33:51;;;;;;;7.57;0.90;;;;;;;16.38;57.83;99859.06;5092823;28;20035;-73
2022/09/27 05:36:16;;;;;;;5.67;0.90;;;;;;;17.34;57.05;99859.50;5110044;28;20024;-73
2022/09/27 05:38:42;;;;;;;11.17;0.83;;;;;;;18.20;54.23;99845.94;5092898;28;20124;-73
2022/09/27 05:41:08;;;;;;;5.57;1.50;;;;;;;18.40;53.98;99847.44;5090032;28;20115;-73
2022/09/27 05:43:33;;;;;;;6.23;0.70;;;;;;;17.95;52.69;99851.78;5093981;28;20028;-73
2022/09/27 05:45:59;;;;;;;5.77;1.47;;;;;;;17.53;53.74;99853.19;5092722;28;20012;-74
2022/09/27 05:48:25;;;;;;;7.80;1.20;;;;;;;17.81;52.83;99852.53;5091643;28;20044;-74
2022/09/27 05:50:50;;;;;;;4.47;0.57;;;;;;;18.46;52.19;99865.63;5093627;28;20034;-74
2022/09/27 05:53:16;;;;;;;6.00;0.50;;;;;;;18.29;50.84;99857.81;5092585;28;20031;-74
2022/09/27 05:55:42;;;;;;;9.17;1.77;;;;;;;17.99;51.66;99855.97;5094940;28;20063;-73
2022/09/27 05:58:09;;;;;;;8.83;1.40;;;;;;;18.82;50.98;99859.09;5092546;28;20023;-74
2022/09/27 06:00:35;;;;;;;7.57;1.07;;;;;;;19.08;50.04;99855.84;5091215;28;20042;-74
2022/09/27 06:03:03;;;;;;;10.07;0.90;;;;;;;18.69;49.80;99851.97;5090933;28;20024;-74
2022/09/27 06:05:30;;;;;;;5.27;1.00;;;;;;;18.46;50.63;99848.88;5090699;28;20451;-75
2022/09/27 06:08:04;;;;;;;10.27;0.90;;;;;;;18.44;51.00;99846.34;5094434;28;20415;-74
2022/09/27 06:10:30;;;;;;;8.50;1.00;;;;;;;19.11;49.48;99845.91;5095356;28;20023;-74
2022/09/27 06:13:04;;;;;;;6.83;0.80;;;;;;;18.30;50.95;99846.28;5089269;28;20035;-74
2022/09/27 06:15:30;;;;;;;7.17;1.17;;;;;;;18.59;50.47;99849.03;5091150;28;20455;-74
2022/09/27 06:17:57;;;;;;;4.47;0.93;;;;;;;18.43;51.04;99844.63;5091013;28;20111;-74
2022/09/27 06:20:22;;;;;;;5.53;1.10;;;;;;;18.70;51.41;99851.88;5093579;28;20031;-74
2022/09/27 06:22:47;;;;;;;7.20;1.10;;;;;;;18.36;51.37;99858.31;5093850;27;20039;-74
2022/09/27 06:25:13;;;;;;;7.83;1.03;;;;;;;18.33;50.86;99855.81;5108935;27;20038;-74
2022/09/27 06:27:38;;;;;;;6.10;1.20;;;;;;;18.66;51.61;99855.66;5107496;28;20020;-74
2022/09/27 06:30:04;;;;;;;6.40;1.50;;;;;;;17.95;52.27;99857.09;5089652;28;20115;-74
2022/09/27 06:32:31;;;;;;;9.73;1.60;;;;;;;17.97;53.50;99853.41;5082880;28;20028;-74
2022/09/27 06:34:57;;;;;;;13.57;2.70;;;;;;;18.13;53.44;99856.06;5091741;28;20075;-73
2022/09/27 06:37:26;;;;;;;5.90;1.13;;;;;;;17.91;51.97;99843.16;5089520;28;20024;-74
2022/09/27 06:39:52;;;;;;;6.30;1.13;;;;;;;18.88;50.19;99855.25;5111629;27;20024;-74
2022/09/27 06:42:19;;;;;;;5.00;1.20;;;;;;;19.17;49.90;99857.94;5090720;28;20020;-74
2022/09/27 06:44:48;;;;;;;5.60;1.20;;;;;;;19.51;48.64;99842.59;5093194;28;20483;-74
2022/09/27 06:47:15;;;;;;;4.27;0.87;;;;;;;19.44;48.88;99842.13;5090423;28;20531;-74
2022/09/27 06:49:40;;;;;;;8.40;1.30;;;;;;;19.10;48.79;99849.50;5091251;28;20055;-74
2022/09/27 06:52:06;;;;;;;10.00;1.47;;;;;;;18.44;50.73;99851.63;5090302;28;20062;-74
2022/09/27 06:54:31;;;;;;;6.73;1.37;;;;;;;17.96;52.33;99872.84;5090555;28;20028;-74
2022/09/27 06:56:56;;;;;;;11.77;1.20;;;;;;;17.05;57.29;99890.06;5088661;28;20032;-73
2022/09/27 07:02:06;;;;;;;3.87;1.03;;;;;;;16.43;58.13;99886.09;5092265;28;20089;-73
2022/09/27 07:04:31;;;;;;;11.83;2.00;;;;;;;17.18;57.46;99885.84;5090768;28;20024;-74
2022/09/27 07:06:57;;;;;;;8.47;1.53;;;;;;;17.17;57.32;99896.50;5090276;28;20507;-74
2022/09/27 07:09:22;;;;;;;8.63;1.50;;;;;;;16.90;58.86;99907.56;5096000;28;20019;-74
2022/09/27 07:11:48;;;;;;;9.10;2.17;;;;;;;17.77;55.10;99904.69;5099747;27;20031;-74
2022/09/27 07:14:13;;;;;;;7.80;1.67;;;;;;;17.56;57.31;99919.09;5098896;27;20032;-73
2022/09/27 07:16:39;;;;;;;10.47;1.53;;;;;;;18.26;54.29;99916.19;5082133;27;20050;-72
2022/09/27 07:19:06;;;;;;;5.27;0.97;;;;;;;16.73;58.83;99924.19;5094505;27;20021;-72
2022/09/27 07:21:32;;;;;;;5.17;0.80;;;;;;;17.25;55.46;99926.00;5086893;28;20031;-71
2022/09/27 07:23:57;;;;;;;0.77;0.50;;;;;;;17.21;54.05;99927.09;5085502;28;20019;-72
2022/09/27 07:26:23;;;;;;;10.33;2.23;;;;;;;17.08;55.60;99930.34;5092254;28;20055;-71
2022/09/27 07:28:48;;;;;;;4.83;0.80;;;;;;;18.30;52.00;99913.25;5090646;28;20112;-72
2022/09/27 07:31:14;;;;;;;5.23;0.70;;;;;;;18.47;50.69;99924.69;5091040;28;20051;-73
2022/09/27 07:33:39;;;;;;;6.47;1.23;;;;;;;18.81;49.66;99912.97;5088901;28;20020;-74
2022/09/27 07:36:09;;;;;;;6.63;0.90;;;;;;;18.94;49.92;99917.56;5090361;28;20027;-73
2022/09/27 07:38:35;;;;;;;6.03;0.93;;;;;;;18.99;48.94;99920.81;5090767;28;20008;-73
2022/09/27 07:41:09;;;;;;;8.07;0.80;;;;;;;18.03;50.45;99915.66;5089680;28;20472;-74
2022/09/27 07:43:34;;;;;;;8.10;1.00;;;;;;;18.45;49.53;99926.53;5089718;28;20034;-73
2022/09/27 07:46:00;;;;;;;5.63;0.93;;;;;;;18.58;49.14;99924.06;5090047;28;20032;-72
2022/09/27 07:48:25;;;;;;;10.17;0.87;;;;;;;18.77;49.40;99926.50;5090137;28;20044;-73
2022/09/27 07:50:52;;;;;;;5.37;0.80;;;;;;;18.38;50.56;99917.25;5090797;28;20048;-72
2022/09/27 07:53:17;;;;;;;6.43;0.90;;;;;;;18.71;50.48;99921.53;5090148;28;20391;-72
2022/09/27 07:55:43;;;;;;;6.10;0.80;;;;;;;19.24;49.05;99924.63;5089519;28;20071;-72
2022/09/27 07:58:10;;;;;;;5.93;0.93;;;;;;;19.52;47.87;99913.19;5090966;28;20093;-72
2022/09/27 08:00:37;;;;;;;8.70;1.70;;;;;;;19.76;47.21;99910.81;5090042;28;20027;-72
2022/09/27 08:03:16;;;;;;;11.57;2.03;;;;;;;19.49;48.17;99916.03;5089279;28;20031;-73
2022/09/27 08:05:43;;;;;;;4.70;0.80;;;;;;;19.27;47.22;99908.53;5089523;28;20032;-73
2022/09/27 08:08:08;;;;;;;8.47;1.07;;;;;;;19.70;48.42;99905.91;5088458;28;20119;-73
2022/09/27 08:10:34;;;;;;;6.53;1.07;;;;;;;20.15;47.44;99921.66;5090246;28;20111;-74
2022/09/27 08:13:03;;;;;;;9.20;2.00;;;;;;;20.28;47.64;99927.03;5089453;28;20392;-74
2022/09/27 08:15:37;;;;;;;7.43;2.27;;;;;;;19.80;48.51;99943.31;5087624;28;20032;-73
2022/09/27 08:18:04;;;;;;;8.63;2.57;;;;;;;19.47;48.97;99942.63;5089018;28;20028;-74
2022/09/27 08:20:29;;;;;;;11.90;2.47;;;;;;;19.98;48.21;99936.00;5090753;28;20032;-74
2022/09/27 08:22:55;;;;;;;6.87;1.80;;;;;;;20.43;48.11;99943.72;5088290;28;20197;-74
2022/09/27 08:25:23;;;;;;;7.03;1.80;;;;;;;20.30;47.92;99941.03;5090826;28;20111;-74
2022/09/27 08:27:56;;;;;;;6.70;2.27;;;;;;;20.61;47.28;99941.69;5090431;28;20036;-74
2022/09/27 08:30:22;;;;;;;12.53;2.37;;;;;;;20.77;46.37;99953.03;5090040;28;20035;-74
2022/09/27 08:32:47;;;;;;;23.43;7.73;;;;;;;20.94;46.42;99951.03;5089343;28;20028;-74
2022/09/27 08:35:14;;;;;;;13.93;4.70;;;;;;;20.84;46.03;99964.94;5090356;28;20037;-73
2022/09/27 08:37:40;;;;;;;8.93;3.60;;;;;;;20.65;46.76;99961.78;5088546;28;20054;-74
2022/09/27 08:40:06;;;;;;;10.63;3.50;;;;;;;20.33;47.00;99972.66;5090031;28;20024;-74
2022/09/27 08:43:05;;;;;;;12.63;1.70;;;;;;;20.12;47.21;99970.44;5088921;28;20463;-73
2022/09/27 08:45:37;;;;;;;8.93;1.10;;;;;;;19.65;48.84;99972.44;5088428;28;20560;-72
2022/09/27 08:48:04;;;;;;;14.10;3.23;;;;;;;19.21;50.19;99973.34;5089683;28;20048;-71
2022/09/27 08:50:43;;;;;;;12.33;2.07;;;;;;;19.21;50.31;99973.34;5092327;28;20106;-71
2022/09/27 08:53:29;;;;;;;12.17;2.63;;;;;;;19.76;48.93;99978.91;5121850;27;20027;-71
2022/09/27 08:55:56;;;;;;;8.07;2.30;;;;;;;19.95;49.12;99973.34;5092919;28;20031;-71
2022/09/27 08:58:28;;;;;;;17.13;2.07;;;;;;;19.21;48.84;99967.22;5084758;28;20503;-71
2022/09/27 09:00:56;;;;;;;8.43;2.87;;;;;;;19.28;50.97;99957.94;5079586;28;20056;-71
2022/09/27 09:03:26;;;;;;;11.80;1.30;;;;;;;18.88;52.23;99965.63;5092747;28;20020;-72
2022/09/27 09:06:06;;;;;;;8.53;1.37;;;;;;;19.28;52.69;99971.19;5088214;28;20029;-73
2022/09/27 09:08:40;;;;;;;6.93;1.63;;;;;;;17.00;60.65;99976.56;5109865;28;20020;-73
2022/09/27 09:14:29;;;;;;;9.50;1.20;;;;;;;17.23;58.04;99976.25;5072217;28;20042;-73
2022/09/27 09:17:16;;;;;;;13.97;2.70;;;;;;;17.30;58.79;99963.59;5089313;28;20039;-73
2022/09/27 09:20:14;;;;;;;7.53;1.87;;;;;;;17.48;60.07;99960.94;5085938;28;20288;-72
2022/09/27 09:23:16;;;;;;;9.93;1.83;;;;;;;17.90;56.37;99956.91;5048571;28;20052;-73
2022/09/27 09:26:19;;;;;;;10.40;4.43;;;;;;;18.16;56.95;99952.00;5083428;28;20031;-73
2022/09/27 09:28:47;;;;;;;9.93;2.72;;;;;;;18.97;52.84;99951.81;5119837;27;20028;-73
2022/09/27 09:31:38;;;;;;;8.87;1.30;;;;;;;18.52;54.41;99942.94;5105881;28;20386;-74
2022/09/27 09:34:15;;;;;;;8.93;1.50;;;;;;;19.63;51.79;99941.66;5088156;28;20039;-74
2022/09/27 09:36:46;;;;;;;6.83;1.07;;;;;;;19.73;51.53;99942.81;5113615;27;20028;-74
2022/09/27 09:39:21;;;;;;;7.43;1.07;;;;;;;19.88;51.44;99950.78;5091741;28;20012;-75
2022/09/27 09:42:11;;;;;;;6.03;1.43;;;;;;;19.67;51.65;99948.47;5092677;28;20032;-74
2022/09/27 09:44:47;;;;;;;12.53;1.50;;;;;;;19.21;53.57;99946.03;5096104;28;20032;-74
2022/09/27 09:47:28;;;;;;;6.37;1.13;;;;;;;17.65;56.04;99966.16;5092008;28;20051;-73
2022/09/27 09:50:02;;;;;;;9.97;1.40;;;;;;;19.26;53.59;99962.47;5093214;28;20046;-74
2022/09/27 09:52:46;;;;;;;3.17;0.73;;;;;;;19.71;51.11;99965.91;5092600;28;20031;-74
2022/09/27 09:55:20;;;;;;;5.77;1.53;;;;;;;20.24;48.78;99965.31;5091785;28;20020;-74
2022/09/27 09:58:15;;;;;;;8.67;1.10;;;;;;;20.53;48.30;99967.88;5092559;28;20020;-73
2022/09/27 10:00:42;;;;;;;4.07;0.90;;;;;;;20.75;48.05;99983.28;5090180;28;20472;-73
2022/09/27 10:03:07;;;;;;;5.97;1.13;;;;;;;19.07;51.55;99987.41;5092173;28;20020;-73
2022/09/27 10:05:33;;;;;;;8.90;2.53;;;;;;;18.29;54.39;99982.13;5094977;28;20024;-73
2022/09/27 10:08:02;;;;;;;9.90;1.90;;;;;;;17.24;58.15;99990.28;5108031;28;20028;-72
2022/09/27 10:10:28;;;;;;;8.23;1.57;;;;;;;18.28;56.15;99983.06;5090882;28;20130;-72
2022/09/27 10:12:55;;;;;;;10.90;2.83;;;;;;;17.02;61.72;99991.41;5088727;28;20028;-72
2022/09/27 10:15:23;;;;;;;5.73;2.03;;;;;;;16.94;63.08;99993.56;5094387;28;20035;-71
2022/09/27 10:17:52;;;;;;;5.67;1.97;;;;;;;16.57;65.76;99990.06;5092169;28;20031;-71
2022/09/27 10:20:41;;;;;;;15.00;2.10;;;;;;;17.93;59.54;99988.50;5091199;28;20507;-70
2022/09/27 10:23:25;;;;;;;3.63;1.27;;;;;;;17.31;62.04;99986.44;5091297;28;20019;-70
2022/09/27 10:25:57;;;;;;;12.57;1.63;;;;;;;16.47;64.54;99994.91;5091586;28;20119;-72
2022/09/27 10:28:36;;;;;;;5.88;1.65;;;;;;;17.14;60.15;99995.19;5091386;28;20139;-71
2022/09/27 10:31:17;;;;;;;7.43;1.53;;;;;;;16.65;62.92;99987.91;5092811;28;20108;-71
2022/09/27 10:33:58;;;;;;;3.23;1.00;;;;;;;17.52;59.07;99994.19;5092592;28;20040;-71
2022/09/27 10:36:28;;;;;;;4.93;0.80;;;;;;;16.37;58.80;99993.66;5090359;28;20350;-70
2022/09/27 10:38:55;;;;;;;5.20;0.87;;;;;;;16.73;57.94;99984.88;5091584;28;20028;-71
2022/09/27 10:41:25;;;;;;;3.23;0.93;;;;;;;15.88;63.91;99991.50;5091101;28;20027;-72
2022/09/27 10:43:50;;;;;;;2.97;1.00;;;;;;;17.96;56.25;99983.03;5090499;28;20036;-71
2022/09/27 10:46:26;;;;;;;7.63;1.23;;;;;;;17.92;53.43;99981.50;5092192;28;20561;-70
2022/09/27 10:49:15;;;;;;;7.07;1.90;;;;;;;18.80;52.16;99974.78;5092719;28;20443;-71
2022/09/27 10:51:42;;;;;;;8.07;2.20;;;;;;;16.85;56.49;99984.28;5090890;28;20085;-70
2022/09/27 10:54:26;;;;;;;5.93;1.77;;;;;;;17.29;57.37;99978.56;5090061;28;20052;-71
2022/09/27 10:57:03;;;;;;;6.73;1.73;;;;;;;17.41;55.62;99977.06;5090205;28;20058;-71
2022/09/27 10:59:33;;;;;;;5.83;1.43;;;;;;;17.34;57.60;99977.47;5087415;28;20067;-71
2022/09/27 11:01:59;;;;;;;6.97;1.50;;;;;;;18.38;52.11;99965.75;5100399;28;20123;-70
2022/09/27 11:04:36;;;;;;;5.50;1.20;;;;;;;18.98;51.33;99967.59;5089743;28;20108;-70
2022/09/27 11:07:18;;;;;;;2.83;0.60;;;;;;;18.96;50.37;99963.38;5076523;28;20418;-71
2022/09/27 11:09:51;;;;;;;2.33;0.63;;;;;;;19.30;50.21;99956.03;5091657;28;20077;-71
2022/09/27 11:12:19;;;;;;;12.80;1.13;;;;;;;17.34;56.58;99970.41;5088461;28;20020;-70
2022/09/27 11:14:52;;;;;;;3.27;0.50;;;;;;;18.35;53.29;99973.00;5087798;28;20032;-70
2022/09/27 11:17:25;;;;;;;3.55;1.48;;;;;;;19.18;49.88;99956.78;5090874;28;20028;-71
2022/09/27 11:19:57;;;;;;;5.13;1.23;;;;;;;19.49;49.70;99951.34;5090319;28;20020;-71
2022/09/27 11:22:40;;;;;;;6.13;1.43;;;;;;;18.34;51.60;99961.56;5091628;28;20035;-71
2022/09/27 11:25:32;;;;;;;2.67;0.93;;;;;;;17.66;55.22;99983.72;5091552;28;20019;-70
2022/09/27 11:28:18;;;;;;;5.37;1.00;;;;;;;18.60;52.77;99951.28;5091580;28;20077;-72
2022/09/27 11:30:51;;;;;;;3.07;0.90;;;;;;;19.02;50.99;99947.09;5094296;28;20075;-70
2022/09/27 11:33:39;;;;;;;3.00;0.97;;;;;;;18.65;53.04;99934.19;5089553;28;20020;-71
2022/09/27 11:36:33;;;;;;;5.60;2.30;;;;;;;19.94;50.09;99929.19;5088652;28;20055;-71
2022/09/27 11:39:18;;;;;;;4.43;1.10;;;;;;;18.93;51.90;99937.03;5104348;27;20395;-71
2022/09/27 11:41:54;;;;;;;6.00;1.00;;;;;;;19.48;51.53;99940.81;5091435;28;20122;-71
2022/09/27 11:44:22;;;;;;;4.83;0.97;;;;;;;19.67;51.12;99948.47;5078874;27;20551;-73
2022/09/27 11:47:08;;;;;;;3.47;0.70;;;;;;;20.63;47.64;99932.66;5086680;28;20060;-72
2022/09/27 11:50:06;;;;;;;4.17;0.90;;;;;;;19.20;50.67;99944.31;5079898;28;20379;-72
2022/09/27 11:53:04;;;;;;;5.17;1.30;;;;;;;19.67;49.79;99937.88;5090972;28;20166;-72
2022/09/27 11:55:51;;;;;;;3.03;0.87;;;;;;;19.68;50.63;99936.94;5090196;28;20031;-72
2022/09/27 11:58:30;;;;;;;4.33;1.00;;;;;;;20.29;49.24;99934.88;5105203;28;20118;-72